sensor_id;sensor_type;location;lat;lon;timestamp;pressure;altitude;pressure_sealevel;temperature;humidity
50103;BME280;35993;52.604;10.078;2022-08-19T00:00:29;100868.31;;;19.59;100.00
50103;BME280;35993;52.604;10.078;2022-08-19T00:02:54;100866.94;;;19.57;100.00
50103;BME280;35993;52.604;10.078;2022-08-19T00:05:21;100883.75;;;19.60;100.00
50103;BME280;35993;52.604;10.078;2022-08-19T00:07:47;100880.97;;;19.50;100.00
50103;BME280;35993;52.604;10.078;2022-08-19T00:10:15;100877.38;;;19.55;100.00
50103;BME280;35993;52.604;10.078;2022-08-19T00:12:41;100874.91;;;19.43;100.00
50103;BME280;35993;52.604;10.078;2022-08-19T00:15:10;100873.25;;;19.42;100.00
50103;BME280;35993;52.604;10.078;2022-08-19T00:17:41;100855.34;;;19.39;100.00
50103;BME280;35993;52.604;10.078;2022-08-19T00:20:08;100854.25;;;19.45;100.00
50103;BME280;35993;52.604;10.078;2022-08-19T00:22:34;100858.94;;;19.50;100.00
50103;BME280;35993;52.604;10.078;2022-08-19T00:24:59;100850.66;;;19.45;100.00
50103;BME280;35993;52.604;10.078;2022-08-19T00:27:25;100850.66;;;19.45;100.00
50103;BME280;35993;52.604;10.078;2022-08-19T00:29:51;100849.03;;;19.44;100.00
50103;BME280;35993;52.604;10.078;2022-08-19T00:32:16;100844.63;;;19.48;100.00
50103;BME280;35993;52.604;10.078;2022-08-19T00:34:42;100850.13;;;19.43;100.00
50103;BME280;35993;52.604;10.078;2022-08-19T00:37:08;100842.66;;;19.33;100.00
50103;BME280;35993;52.604;10.078;2022-08-19T00:39:34;100849.03;;;19.34;100.00
50103;BME280;35993;52.604;10.078;2022-08-19T00:42:00;100839.63;;;19.29;100.00
50103;BME280;35993;52.604;10.078;2022-08-19T00:44:28;100834.69;;;19.31;100.00
50103;BME280;35993;52.604;10.078;2022-08-19T00:46:57;100836.88;;;19.35;100.00
50103;BME280;35993;52.604;10.078;2022-08-19T00:49:31;100833.03;;;19.30;100.00
50103;BME280;35993;52.604;10.078;2022-08-19T00:52:09;100827.53;;;19.41;100.00
50103;BME280;35993;52.604;10.078;2022-08-19T00:54:38;100822.56;;;19.17;100.00
50103;BME280;35993;52.604;10.078;2022-08-19T00:57:06;100807.97;;;19.11;100.00
50103;BME280;35993;52.604;10.078;2022-08-19T00:59:35;100816.19;;;19.06;100.00
50103;BME280;35993;52.604;10.078;2022-08-19T01:02:03;100817.03;;;19.07;100.00
50103;BME280;35993;52.604;10.078;2022-08-19T01:04:29;100814.00;;;19.03;100.00
50103;BME280;35993;52.604;10.078;2022-08-19T01:06:56;100813.94;;;18.88;100.00
50103;BME280;35993;52.604;10.078;2022-08-19T01:09:22;100815.56;;;18.89;100.00
50103;BME280;35993;52.604;10.078;2022-08-19T01:11:48;100818.63;;;18.92;100.00
50103;BME280;35993;52.604;10.078;2022-08-19T01:14:14;100819.16;;;18.89;100.00
50103;BME280;35993;52.604;10.078;2022-08-19T01:16:42;100825.78;;;18.93;100.00
50103;BME280;35993;52.604;10.078;2022-08-19T01:19:27;100818.28;;;18.83;100.00
50103;BME280;35993;52.604;10.078;2022-08-19T01:22:09;100817.78;;;18.87;100.00
50103;BME280;35993;52.604;10.078;2022-08-19T01:24:36;100815.28;;;18.75;100.00
50103;BME280;35993;52.604;10.078;2022-08-19T01:27:04;100819.66;;;18.76;100.00
50103;BME280;35993;52.604;10.078;2022-08-19T01:29:30;100827.91;;;18.76;100.00
50103;BME280;35993;52.604;10.078;2022-08-19T01:31:57;100824.88;;;18.72;100.00
50103;BME280;35993;52.604;10.078;2022-08-19T01:34:22;100824.59;;;18.74;100.00
50103;BME280;35993;52.604;10.078;2022-08-19T01:36:48;100813.88;;;18.72;100.00
50103;BME280;35993;52.604;10.078;2022-08-19T01:39:23;100818.84;;;18.75;100.00
50103;BME280;35993;52.604;10.078;2022-08-19T01:41:49;100823.25;;;18.76;100.00
50103;BME280;35993;52.604;10.078;2022-08-19T01:44:16;100830.94;;;18.79;100.00
50103;BME280;35993;52.604;10.078;2022-08-19T01:46:43;100827.38;;;18.79;100.00
50103;BME280;35993;52.604;10.078;2022-08-19T01:49:09;100821.28;;;18.66;100.00
50103;BME280;35993;52.604;10.078;2022-08-19T01:51:36;100823.69;;;18.58;100.00
50103;BME280;35993;52.604;10.078;2022-08-19T01:54:02;100819.28;;;18.57;100.00
50103;BME280;35993;52.604;10.078;2022-08-19T01:56:28;100815.69;;;18.46;100.00
50103;BME280;35993;52.604;10.078;2022-08-19T01:58:58;100816.31;;;18.58;100.00
50103;BME280;35993;52.604;10.078;2022-08-19T02:01:25;100817.66;;;18.56;100.00
50103;BME280;35993;52.604;10.078;2022-08-19T02:03:51;100815.47;;;18.58;100.00
50103;BME280;35993;52.604;10.078;2022-08-19T02:06:19;100813.56;;;18.58;100.00
50103;BME280;35993;52.604;10.078;2022-08-19T02:08:44;100814.34;;;18.54;100.00
50103;BME280;35993;52.604;10.078;2022-08-19T02:11:20;100818.47;;;18.56;100.00
50103;BME280;35993;52.604;10.078;2022-08-19T02:13:46;100806.66;;;18.50;100.00
50103;BME280;35993;52.604;10.078;2022-08-19T02:16:11;100814.25;;;18.33;100.00
50103;BME280;35993;52.604;10.078;2022-08-19T02:18:37;100801.91;;;18.41;100.00
50103;BME280;35993;52.604;10.078;2022-08-19T02:21:03;100806.28;;;18.31;100.00
50103;BME280;35993;52.604;10.078;2022-08-19T02:23:28;100808.72;;;18.28;100.00
50103;BME280;35993;52.604;10.078;2022-08-19T02:25:54;100803.19;;;18.23;100.00
50103;BME280;35993;52.604;10.078;2022-08-19T02:28:20;100801.03;;;18.30;100.00
50103;BME280;35993;52.604;10.078;2022-08-19T02:30:46;100809.56;;;18.33;100.00
50103;BME280;35993;52.604;10.078;2022-08-19T02:33:12;100801.03;;;18.30;100.00
50103;BME280;35993;52.604;10.078;2022-08-19T02:35:44;100801.81;;;18.20;100.00
50103;BME280;35993;52.604;10.078;2022-08-19T02:38:09;100795.75;;;18.18;100.00
50103;BME280;35993;52.604;10.078;2022-08-19T02:41:03;100796.03;;;18.16;100.00
50103;BME280;35993;52.604;10.078;2022-08-19T02:43:31;100797.94;;;18.16;100.00
50103;BME280;35993;52.604;10.078;2022-08-19T02:45:57;100797.38;;;18.14;100.00
50103;BME280;35993;52.604;10.078;2022-08-19T02:48:24;100802.03;;;18.08;100.00
50103;BME280;35993;52.604;10.078;2022-08-19T02:50:52;100804.78;;;18.08;100.00
50103;BME280;35993;52.604;10.078;2022-08-19T02:53:26;100800.31;;;17.97;100.00
50103;BME280;35993;52.604;10.078;2022-08-19T02:55:52;100798.69;;;18.01;100.00
50103;BME280;35993;52.604;10.078;2022-08-19T02:58:18;100787.09;;;17.94;100.00
50103;BME280;35993;52.604;10.078;2022-08-19T03:00:46;100790.81;;;17.82;100.00
50103;BME280;35993;52.604;10.078;2022-08-19T03:03:13;100793.88;;;17.86;100.00
50103;BME280;35993;52.604;10.078;2022-08-19T03:05:39;100794.72;;;17.87;100.00
50103;BME280;35993;52.604;10.078;2022-08-19T03:08:05;100804.31;;;17.84;100.00
50103;BME280;35993;52.604;10.078;2022-08-19T03:10:32;100804.88;;;17.91;100.00
50103;BME280;35993;52.604;10.078;2022-08-19T03:12:58;100798.31;;;17.92;100.00
50103;BME280;35993;52.604;10.078;2022-08-19T03:15:23;100796.06;;;17.84;100.00
50103;BME280;35993;52.604;10.078;2022-08-19T03:17:49;100811.97;;;17.82;100.00
50103;BME280;35993;52.604;10.078;2022-08-19T03:20:15;100811.69;;;17.83;100.00
50103;BME280;35993;52.604;10.078;2022-08-19T03:22:41;100812.81;;;17.88;100.00
50103;BME280;35993;52.604;10.078;2022-08-19T03:25:07;100810.03;;;17.82;100.00
50103;BME280;35993;52.604;10.078;2022-08-19T03:27:32;100804.75;;;17.71;100.00
50103;BME280;35993;52.604;10.078;2022-08-19T03:29:58;100802.22;;;17.64;100.00
50103;BME280;35993;52.604;10.078;2022-08-19T03:32:24;100802.78;;;17.66;100.00
50103;BME280;35993;52.604;10.078;2022-08-19T03:34:50;100807.13;;;17.62;100.00
50103;BME280;35993;52.604;10.078;2022-08-19T03:37:16;100809.16;;;17.72;100.00
50103;BME280;35993;52.604;10.078;2022-08-19T03:39:41;100807.75;;;17.69;100.00
50103;BME280;35993;52.604;10.078;2022-08-19T03:42:08;100807.69;;;17.59;100.00
50103;BME280;35993;52.604;10.078;2022-08-19T03:44:34;100803.00;;;17.59;100.00
50103;BME280;35993;52.604;10.078;2022-08-19T03:47:01;100801.06;;;17.55;100.00
50103;BME280;35993;52.604;10.078;2022-08-19T03:49:30;100807.41;;;17.60;100.00
50103;BME280;35993;52.604;10.078;2022-08-19T03:51:57;100808.84;;;17.68;100.00
50103;BME280;35993;52.604;10.078;2022-08-19T03:54:26;100815.91;;;17.59;100.00
50103;BME280;35993;52.604;10.078;2022-08-19T03:56:54;100819.78;;;17.63;100.00
50103;BME280;35993;52.604;10.078;2022-08-19T03:59:27;100811.59;;;17.68;100.00
50103;BME280;35993;52.604;10.078;2022-08-19T04:01:54;100808.22;;;17.61;100.00
50103;BME280;35993;52.604;10.078;2022-08-19T04:04:20;100812.53;;;17.51;100.00
50103;BME280;35993;52.604;10.078;2022-08-19T04:06:47;100817.16;;;17.46;100.00
50103;BME280;35993;52.604;10.078;2022-08-19T04:09:13;100812.66;;;17.34;100.00
50103;BME280;35993;52.604;10.078;2022-08-19T04:11:51;100806.38;;;17.39;100.00
50103;BME280;35993;52.604;10.078;2022-08-19T04:14:24;100817.63;;;17.38;100.00
50103;BME280;35993;52.604;10.078;2022-08-19T04:16:52;100825.91;;;17.43;100.00
50103;BME280;35993;52.604;10.078;2022-08-19T04:19:19;100833.63;;;17.46;100.00
50103;BME280;35993;52.604;10.078;2022-08-19T04:21:46;100835.53;;;17.45;100.00
50103;BME280;35993;52.604;10.078;2022-08-19T04:24:13;100837.00;;;17.26;100.00
50103;BME280;35993;52.604;10.078;2022-08-19T04:26:39;100827.75;;;17.32;100.00
50103;BME280;35993;52.604;10.078;2022-08-19T04:29:08;100829.63;;;17.31;100.00
50103;BME280;35993;52.604;10.078;2022-08-19T04:31:34;100829.94;;;17.35;100.00
50103;BME280;35993;52.604;10.078;2022-08-19T04:34:04;100825.84;;;17.38;100.00
50103;BME280;35993;52.604;10.078;2022-08-19T04:36:33;100833.78;;;17.34;100.00
50103;BME280;35993;52.604;10.078;2022-08-19T04:39:02;100836.78;;;17.32;100.00
50103;BME280;35993;52.604;10.078;2022-08-19T04:41:28;100837.78;;;17.48;100.00
50103;BME280;35993;52.604;10.078;2022-08-19T04:44:13;100834.75;;;17.50;100.00
50103;BME280;35993;52.604;10.078;2022-08-19T04:46:39;100841.38;;;17.54;100.00
50103;BME280;35993;52.604;10.078;2022-08-19T04:49:06;100839.22;;;17.56;100.00
50103;BME280;35993;52.604;10.078;2022-08-19T04:51:33;100848.50;;;17.50;100.00
50103;BME280;35993;52.604;10.078;2022-08-19T04:53:59;100843.31;;;17.53;100.00
50103;BME280;35993;52.604;10.078;2022-08-19T04:56:26;100841.91;;;17.51;100.00
50103;BME280;35993;52.604;10.078;2022-08-19T04:58:55;100845.47;;;17.51;100.00
50103;BME280;35993;52.604;10.078;2022-08-19T05:01:27;100848.59;;;17.60;100.00
50103;BME280;35993;52.604;10.078;2022-08-19T05:03:54;100846.97;;;17.64;100.00
50103;BME280;35993;52.604;10.078;2022-08-19T05:06:21;100850.28;;;17.66;100.00
50103;BME280;35993;52.604;10.078;2022-08-19T05:08:47;100854.13;;;17.65;100.00
50103;BME280;35993;52.604;10.078;2022-08-19T05:11:16;100853.03;;;17.66;100.00
50103;BME280;35993;52.604;10.078;2022-08-19T05:13:44;100855.16;;;17.59;100.00
50103;BME280;35993;52.604;10.078;2022-08-19T05:16:11;100848.94;;;17.69;100.00
50103;BME280;35993;52.604;10.078;2022-08-19T05:18:38;100850.63;;;17.75;100.00
50103;BME280;35993;52.604;10.078;2022-08-19T05:21:24;100854.19;;;17.76;100.00
50103;BME280;35993;52.604;10.078;2022-08-19T05:24:08;100847.75;;;17.92;100.00
50103;BME280;35993;52.604;10.078;2022-08-19T05:26:38;100837.28;;;17.89;100.00
50103;BME280;35993;52.604;10.078;2022-08-19T05:29:05;100829.56;;;17.86;100.00
50103;BME280;35993;52.604;10.078;2022-08-19T05:31:33;100840.59;;;17.91;100.00
50103;BME280;35993;52.604;10.078;2022-08-19T05:33:58;100837.91;;;17.96;100.00
50103;BME280;35993;52.604;10.078;2022-08-19T05:36:28;100846.41;;;17.95;100.00
50103;BME280;35993;52.604;10.078;2022-08-19T05:38:54;100845.59;;;17.94;100.00
50103;BME280;35993;52.604;10.078;2022-08-19T05:41:21;100849.19;;;18.00;100.00
50103;BME280;35993;52.604;10.078;2022-08-19T05:43:56;100850.50;;;17.92;100.00
50103;BME280;35993;52.604;10.078;2022-08-19T05:46:22;100843.41;;;17.96;100.00
50103;BME280;35993;52.604;10.078;2022-08-19T05:48:48;100847.66;;;17.82;100.00
50103;BME280;35993;52.604;10.078;2022-08-19T05:51:15;100846.09;;;17.91;100.00
50103;BME280;35993;52.604;10.078;2022-08-19T05:53:42;100847.53;;;17.99;100.00
50103;BME280;35993;52.604;10.078;2022-08-19T05:56:13;100850.09;;;18.06;100.00
50103;BME280;35993;52.604;10.078;2022-08-19T05:58:42;100845.69;;;18.05;100.00
50103;BME280;35993;52.604;10.078;2022-08-19T06:01:16;100847.81;;;17.97;100.00
50103;BME280;35993;52.604;10.078;2022-08-19T06:03:43;100849.44;;;17.93;100.00
50103;BME280;35993;52.604;10.078;2022-08-19T06:06:10;100850.00;;;18.00;100.00
50103;BME280;35993;52.604;10.078;2022-08-19T06:08:37;100848.63;;;17.98;100.00
50103;BME280;35993;52.604;10.078;2022-08-19T06:11:40;100848.19;;;18.11;100.00
50103;BME280;35993;52.604;10.078;2022-08-19T06:14:09;100841.41;;;18.24;100.00
50103;BME280;35993;52.604;10.078;2022-08-19T06:16:36;100844.44;;;18.28;100.00
50103;BME280;35993;52.604;10.078;2022-08-19T06:19:06;100842.00;;;18.31;100.00
50103;BME280;35993;52.604;10.078;2022-08-19T06:21:34;100850.50;;;18.30;100.00
50103;BME280;35993;52.604;10.078;2022-08-19T06:24:01;100843.91;;;18.31;100.00
50103;BME280;35993;52.604;10.078;2022-08-19T06:26:27;100850.81;;;18.39;100.00
50103;BME280;35993;52.604;10.078;2022-08-19T06:28:53;100861.81;;;18.39;100.00
50103;BME280;35993;52.604;10.078;2022-08-19T06:31:25;100856.88;;;18.41;100.00
50103;BME280;35993;52.604;10.078;2022-08-19T06:33:51;100862.41;;;18.46;100.00
50103;BME280;35993;52.604;10.078;2022-08-19T06:36:21;100861.84;;;18.44;100.00
50103;BME280;35993;52.604;10.078;2022-08-19T06:38:47;100862.09;;;18.37;100.00
50103;BME280;35993;52.604;10.078;2022-08-19T06:41:13;100866.22;;;18.40;100.00
50103;BME280;35993;52.604;10.078;2022-08-19T06:43:39;100861.81;;;18.39;100.00
50103;BME280;35993;52.604;10.078;2022-08-19T06:46:10;100872.00;;;18.38;100.00
50103;BME280;35993;52.604;10.078;2022-08-19T06:48:36;100878.63;;;18.47;100.00
50103;BME280;35993;52.604;10.078;2022-08-19T06:51:02;100877.50;;;18.43;100.00
50103;BME280;35993;52.604;10.078;2022-08-19T06:53:29;100875.31;;;18.40;100.00
50103;BME280;35993;52.604;10.078;2022-08-19T06:55:55;100890.16;;;18.44;100.00
50103;BME280;35993;52.604;10.078;2022-08-19T06:58:25;100881.94;;;18.44;100.00
50103;BME280;35993;52.604;10.078;2022-08-19T07:00:51;100883.66;;;18.56;100.00
50103;BME280;35993;52.604;10.078;2022-08-19T07:03:16;100884.78;;;18.65;100.00
50103;BME280;35993;52.604;10.078;2022-08-19T07:05:43;100877.09;;;18.67;100.00
50103;BME280;35993;52.604;10.078;2022-08-19T07:08:09;100885.91;;;18.74;100.00
50103;BME280;35993;52.604;10.078;2022-08-19T07:10:35;100878.50;;;18.70;100.00
50103;BME280;35993;52.604;10.078;2022-08-19T07:13:02;100882.31;;;18.63;100.00
50103;BME280;35993;52.604;10.078;2022-08-19T07:15:29;100888.13;;;18.72;100.00
50103;BME280;35993;52.604;10.078;2022-08-19T07:17:55;100902.97;;;18.71;100.00
50103;BME280;35993;52.604;10.078;2022-08-19T07:20:20;100902.13;;;18.71;100.00
50103;BME280;35993;52.604;10.078;2022-08-19T07:22:46;100906.59;;;18.82;100.00
50103;BME280;35993;52.604;10.078;2022-08-19T07:25:12;100909.88;;;18.79;100.00
50103;BME280;35993;52.604;10.078;2022-08-19T07:27:39;100903.28;;;18.80;100.00
50103;BME280;35993;52.604;10.078;2022-08-19T07:30:05;100905.28;;;18.95;100.00
50103;BME280;35993;52.604;10.078;2022-08-19T07:32:31;100917.38;;;18.94;100.00
50103;BME280;35993;52.604;10.078;2022-08-19T07:34:56;100918.81;;;19.02;100.00
50103;BME280;35993;52.604;10.078;2022-08-19T07:37:23;100924.88;;;19.04;100.00
50103;BME280;35993;52.604;10.078;2022-08-19T07:39:49;100931.94;;;18.89;100.00
50103;BME280;35993;52.604;10.078;2022-08-19T07:42:15;100931.91;;;18.84;100.00
50103;BME280;35993;52.604;10.078;2022-08-19T07:44:41;100933.56;;;18.85;100.00
50103;BME280;35993;52.604;10.078;2022-08-19T07:47:07;100939.31;;;18.83;100.00
50103;BME280;35993;52.604;10.078;2022-08-19T07:49:33;100935.53;;;18.90;100.00
50103;BME280;35993;52.604;10.078;2022-08-19T07:52:01;100935.56;;;18.95;100.00
50103;BME280;35993;52.604;10.078;2022-08-19T07:54:31;100934.44;;;18.91;100.00
50103;BME280;35993;52.604;10.078;2022-08-19T07:56:57;100931.44;;;18.97;100.00
50103;BME280;35993;52.604;10.078;2022-08-19T07:59:23;100944.09;;;18.93;100.00
50103;BME280;35993;52.604;10.078;2022-08-19T08:01:50;100944.66;;;18.95;100.00
50103;BME280;35993;52.604;10.078;2022-08-19T08:04:17;100948.25;;;19.06;100.00
50103;BME280;35993;52.604;10.078;2022-08-19T08:07:02;100944.09;;;18.98;100.00
50103;BME280;35993;52.604;10.078;2022-08-19T08:09:47;100949.63;;;19.04;100.00
50103;BME280;35993;52.604;10.078;2022-08-19T08:12:17;100950.47;;;19.04;100.00
50103;BME280;35993;52.604;10.078;2022-08-19T08:14:46;100941.69;;;19.12;100.00
50103;BME280;35993;52.604;10.078;2022-08-19T08:17:14;100955.75;;;19.21;100.00
50103;BME280;35993;52.604;10.078;2022-08-19T08:19:40;100960.19;;;19.22;100.00
50103;BME280;35993;52.604;10.078;2022-08-19T08:22:06;100963.97;;;19.11;100.00
50103;BME280;35993;52.604;10.078;2022-08-19T08:24:33;100966.47;;;19.18;100.00
50103;BME280;35993;52.604;10.078;2022-08-19T08:27:00;100964.31;;;19.20;100.00
50103;BME280;35993;52.604;10.078;2022-08-19T08:29:27;100968.94;;;19.14;100.00
50103;BME280;35993;52.604;10.078;2022-08-19T08:31:53;100971.16;;;19.17;100.00
50103;BME280;35993;52.604;10.078;2022-08-19T08:34:20;100973.38;;;19.20;100.00
50103;BME280;35993;52.604;10.078;2022-08-19T08:36:46;100978.84;;;19.15;100.00
50103;BME280;35993;52.604;10.078;2022-08-19T08:39:14;100969.75;;;19.09;100.00
50103;BME280;35993;52.604;10.078;2022-08-19T08:41:51;100964.31;;;19.20;100.00
50103;BME280;35993;52.604;10.078;2022-08-19T08:44:54;100964.03;;;19.26;100.00
50103;BME280;35993;52.604;10.078;2022-08-19T08:47:25;100963.50;;;19.29;100.00
50103;BME280;35993;52.604;10.078;2022-08-19T08:49:56;100969.78;;;19.14;100.00
50103;BME280;35993;52.604;10.078;2022-08-19T08:52:28;100967.81;;;19.10;100.00
50103;BME280;35993;52.604;10.078;2022-08-19T08:54:57;100969.22;;;19.18;100.00
50103;BME280;35993;52.604;10.078;2022-08-19T08:58:16;100960.97;;;19.18;100.00
50103;BME280;35993;52.604;10.078;2022-08-19T09:00:45;100963.75;;;19.28;100.00
50103;BME280;35993;52.604;10.078;2022-08-19T09:03:18;100955.81;;;19.37;100.00
50103;BME280;35993;52.604;10.078;2022-08-19T09:05:49;100954.44;;;19.39;100.00
50103;BME280;35993;52.604;10.078;2022-08-19T09:10:55;100961.88;;;19.39;100.00
50103;BME280;35993;52.604;10.078;2022-08-19T09:16:12;100960.50;;;19.36;100.00
50103;BME280;35993;52.604;10.078;2022-08-19T09:21:08;100965.44;;;19.34;100.00
50103;BME280;35993;52.604;10.078;2022-08-19T09:23:35;100966.28;;;19.45;100.00
50103;BME280;35993;52.604;10.078;2022-08-19T09:26:09;100963.50;;;19.35;100.00
50103;BME280;35993;52.604;10.078;2022-08-19T09:28:44;100964.38;;;19.40;100.00
50103;BME280;35993;52.604;10.078;2022-08-19T09:31:12;100970.97;;;19.44;100.00
50103;BME280;35993;52.604;10.078;2022-08-19T09:33:57;100968.50;;;19.43;100.00
50103;BME280;35993;52.604;10.078;2022-08-19T09:36:43;100972.09;;;19.54;100.00
50103;BME280;35993;52.604;10.078;2022-08-19T09:39:29;100970.44;;;19.53;100.00
50103;BME280;35993;52.604;10.078;2022-08-19T09:42:16;100969.94;;;19.66;100.00
50103;BME280;35993;52.604;10.078;2022-08-19T09:45:04;100972.44;;;19.73;100.00
50103;BME280;35993;52.604;10.078;2022-08-19T09:47:51;100965.25;;;19.77;100.00
50103;BME280;35993;52.604;10.078;2022-08-19T09:50:38;100964.22;;;19.88;100.00
50103;BME280;35993;52.604;10.078;2022-08-19T09:53:24;100960.38;;;19.89;100.00
50103;BME280;35993;52.604;10.078;2022-08-19T09:56:11;100959.28;;;19.95;100.00
50103;BME280;35993;52.604;10.078;2022-08-19T09:58:58;100961.47;;;19.98;100.00
50103;BME280;35993;52.604;10.078;2022-08-19T10:01:45;100965.06;;;19.89;100.00
50103;BME280;35993;52.604;10.078;2022-08-19T10:04:31;100967.84;;;20.04;100.00
50103;BME280;35993;52.604;10.078;2022-08-19T10:07:37;100966.16;;;20.08;100.00
50103;BME280;35993;52.604;10.078;2022-08-19T10:10:23;100966.72;;;20.21;100.00
50103;BME280;35993;52.604;10.078;2022-08-19T10:13:10;100973.91;;;20.22;100.00
50103;BME280;35993;52.604;10.078;2022-08-19T10:16:04;100975.81;;;20.32;100.00
50103;BME280;35993;52.604;10.078;2022-08-19T10:18:52;100969.19;;;20.38;100.00
50103;BME280;35993;52.604;10.078;2022-08-19T10:21:41;100975.81;;;20.37;100.00
50103;BME280;35993;52.604;10.078;2022-08-19T10:24:08;100967.00;;;20.50;100.00
50103;BME280;35993;52.604;10.078;2022-08-19T10:26:36;100966.97;;;20.55;100.00
50103;BME280;35993;52.604;10.078;2022-08-19T10:29:04;100967.50;;;20.57;100.00
50103;BME280;35993;52.604;10.078;2022-08-19T10:31:32;100963.38;;;20.70;99.92
50103;BME280;35993;52.604;10.078;2022-08-19T10:34:01;100959.53;;;20.71;98.96
50103;BME280;35993;52.604;10.078;2022-08-19T10:36:31;100963.13;;;20.77;99.49
50103;BME280;35993;52.604;10.078;2022-08-19T10:39:02;100960.59;;;20.75;97.39
50103;BME280;35993;52.604;10.078;2022-08-19T10:41:32;100956.19;;;20.69;98.36
50103;BME280;35993;52.604;10.078;2022-08-19T10:44:07;100957.31;;;20.68;96.46
50103;BME280;35993;52.604;10.078;2022-08-19T10:46:39;100947.38;;;20.67;97.85
50103;BME280;35993;52.604;10.078;2022-08-19T10:49:07;100946.00;;;20.75;98.65
50103;BME280;35993;52.604;10.078;2022-08-19T10:51:35;100940.44;;;20.85;98.49
50103;BME280;35993;52.604;10.078;2022-08-19T10:54:20;100947.34;;;20.88;97.99
50103;BME280;35993;52.604;10.078;2022-08-19T10:56:46;100940.13;;;20.97;97.98
50103;BME280;35993;52.604;10.078;2022-08-19T10:59:22;100932.41;;;20.99;96.57
50103;BME280;35993;52.604;10.078;2022-08-19T11:01:50;100931.03;;;20.97;96.80
50103;BME280;35993;52.604;10.078;2022-08-19T11:04:18;100937.09;;;21.04;95.71
50103;BME280;35993;52.604;10.078;2022-08-19T11:06:45;100927.13;;;21.08;97.15
50103;BME280;35993;52.604;10.078;2022-08-19T11:09:18;100931.50;;;21.19;95.93
50103;BME280;35993;52.604;10.078;2022-08-19T11:11:45;100923.47;;;21.23;94.76
50103;BME280;35993;52.604;10.078;2022-08-19T11:14:15;100924.84;;;21.25;94.34
50103;BME280;35993;52.604;10.078;2022-08-19T11:16:42;100925.03;;;21.39;93.13
50103;BME280;35993;52.604;10.078;2022-08-19T11:19:09;100922.03;;;21.36;92.60
50103;BME280;35993;52.604;10.078;2022-08-19T11:21:41;100926.94;;;21.44;92.60
50103;BME280;35993;52.604;10.078;2022-08-19T11:24:13;100927.50;;;21.46;91.09
50103;BME280;35993;52.604;10.078;2022-08-19T11:26:41;100918.69;;;21.39;91.45
50103;BME280;35993;52.604;10.078;2022-08-19T11:29:09;100921.34;;;21.54;91.07
50103;BME280;35993;52.604;10.078;2022-08-19T11:31:47;100917.78;;;21.59;90.88
50103;BME280;35993;52.604;10.078;2022-08-19T11:34:17;100918.22;;;21.76;91.38
50103;BME280;35993;52.604;10.078;2022-08-19T11:36:45;100912.13;;;22.09;89.50
50103;BME280;35993;52.604;10.078;2022-08-19T11:39:30;100910.91;;;21.91;87.32
50103;BME280;35993;52.604;10.078;2022-08-19T11:42:17;100911.63;;;22.02;89.41
50103;BME280;35993;52.604;10.078;2022-08-19T11:45:27;100913.38;;;21.92;88.53
50103;BME280;35993;52.604;10.078;2022-08-19T11:48:13;100915.03;;;21.93;88.70
50103;BME280;35993;52.604;10.078;2022-08-19T11:51:04;100912.53;;;21.97;88.79
50103;BME280;35993;52.604;10.078;2022-08-19T11:53:53;100906.00;;;22.12;88.59
50103;BME280;35993;52.604;10.078;2022-08-19T11:56:39;100904.91;;;22.13;87.48
50103;BME280;35993;52.604;10.078;2022-08-19T11:59:26;100900.97;;;22.19;87.10
50103;BME280;35993;52.604;10.078;2022-08-19T12:02:12;100912.28;;;22.23;85.95
50103;BME280;35993;52.604;10.078;2022-08-19T12:05:01;100904.59;;;22.15;86.42
50103;BME280;35993;52.604;10.078;2022-08-19T12:07:48;100894.81;;;22.27;84.77
50103;BME280;35993;52.604;10.078;2022-08-19T12:10:35;100893.63;;;22.34;84.83
50103;BME280;35993;52.604;10.078;2022-08-19T12:13:21;100894.28;;;22.79;85.20
50103;BME280;35993;52.604;10.078;2022-08-19T12:16:12;100895.84;;;23.10;82.61
50103;BME280;35993;52.604;10.078;2022-08-19T12:18:58;100888.72;;;23.03;81.13
50103;BME280;35993;52.604;10.078;2022-08-19T12:21:29;100901.56;;;23.18;80.85
50103;BME280;35993;52.604;10.078;2022-08-19T12:23:57;100900.13;;;23.02;80.50
50103;BME280;35993;52.604;10.078;2022-08-19T12:26:24;100899.28;;;23.01;80.39
50103;BME280;35993;52.604;10.078;2022-08-19T12:28:51;100899.56;;;23.24;79.78
50103;BME280;35993;52.604;10.078;2022-08-19T12:31:17;100903.06;;;23.49;78.36
50103;BME280;35993;52.604;10.078;2022-08-19T12:33:45;100909.16;;;23.32;79.38
50103;BME280;35993;52.604;10.078;2022-08-19T12:36:14;100904.50;;;23.27;79.38
50103;BME280;35993;52.604;10.078;2022-08-19T12:38:41;100900.84;;;23.32;77.80
50103;BME280;35993;52.604;10.078;2022-08-19T12:41:10;100902.13;;;23.59;77.63
50103;BME280;35993;52.604;10.078;2022-08-19T12:43:37;100903.63;;;23.51;77.96
50103;BME280;35993;52.604;10.078;2022-08-19T12:46:05;100897.75;;;23.52;76.72
50103;BME280;35993;52.604;10.078;2022-08-19T12:48:32;100895.38;;;23.46;77.12
50103;BME280;35993;52.604;10.078;2022-08-19T12:50:57;100902.91;;;23.40;77.90
50103;BME280;35993;52.604;10.078;2022-08-19T12:53:24;100893.19;;;23.23;78.76
50103;BME280;35993;52.604;10.078;2022-08-19T12:55:58;100898.91;;;23.08;78.26
50103;BME280;35993;52.604;10.078;2022-08-19T12:58:26;100898.53;;;22.96;79.00